sensor_id;sensor_type;location;lat;lon;timestamp;P1;durP1;ratioP1;P2;durP2;ratioP2
43646;SDS011;56152;49.996;18.980;2023-07-13T00:02:07;6.20;;;4.95;;
43646;SDS011;56152;49.996;18.980;2023-07-13T00:07:20;8.15;;;3.83;;
43646;SDS011;56152;49.996;18.980;2023-07-13T00:12:24;8.25;;;4.53;;
43646;SDS011;56152;49.996;18.980;2023-07-13T00:17:40;7.07;;;4.32;;
43646;SDS011;56152;49.996;18.980;2023-07-13T00:22:46;5.95;;;4.10;;
43646;SDS011;56152;49.996;18.980;2023-07-13T00:27:49;5.28;;;3.95;;
43646;SDS011;56152;49.996;18.980;2023-07-13T00:32:53;4.32;;;3.75;;
43646;SDS011;56152;49.996;18.980;2023-07-13T00:43:19;6.53;;;3.78;;
43646;SDS011;56152;49.996;18.980;2023-07-13T00:53:47;5.68;;;3.90;;
43646;SDS011;56152;49.996;18.980;2023-07-13T01:04:06;6.55;;;3.90;;
43646;SDS011;56152;49.996;18.980;2023-07-13T01:09:16;4.53;;;3.47;;
43646;SDS011;56152;49.996;18.980;2023-07-13T01:14:21;6.60;;;3.65;;
43646;SDS011;56152;49.996;18.980;2023-07-13T01:24:59;11.05;;;5.20;;
43646;SDS011;56152;49.996;18.980;2023-07-13T01:30:01;6.30;;;4.70;;
43646;SDS011;56152;49.996;18.980;2023-07-13T01:35:09;6.53;;;4.25;;
43646;SDS011;56152;49.996;18.980;2023-07-13T01:40:17;9.10;;;5.47;;
43646;SDS011;56152;49.996;18.980;2023-07-13T01:50:44;5.95;;;4.28;;
43646;SDS011;56152;49.996;18.980;2023-07-13T01:55:48;5.93;;;4.25;;
43646;SDS011;56152;49.996;18.980;2023-07-13T02:06:35;7.35;;;5.13;;
43646;SDS011;56152;49.996;18.980;2023-07-13T02:11:39;6.60;;;4.90;;
43646;SDS011;56152;49.996;18.980;2023-07-13T02:16:49;8.60;;;5.47;;
43646;SDS011;56152;49.996;18.980;2023-07-13T02:21:51;11.15;;;5.57;;
43646;SDS011;56152;49.996;18.980;2023-07-13T02:27:08;7.03;;;4.78;;
43646;SDS011;56152;49.996;18.980;2023-07-13T02:32:10;9.27;;;4.80;;
43646;SDS011;56152;49.996;18.980;2023-07-13T02:47:59;12.27;;;5.55;;
43646;SDS011;56152;49.996;18.980;2023-07-13T02:53:04;16.58;;;6.32;;
43646;SDS011;56152;49.996;18.980;2023-07-13T02:58:07;7.43;;;4.95;;
43646;SDS011;56152;49.996;18.980;2023-07-13T03:03:11;11.98;;;5.28;;
43646;SDS011;56152;49.996;18.980;2023-07-13T03:08:14;8.82;;;5.18;;
43646;SDS011;56152;49.996;18.980;2023-07-13T03:13:17;17.20;;;5.40;;
43646;SDS011;56152;49.996;18.980;2023-07-13T03:18:20;12.40;;;5.00;;
43646;SDS011;56152;49.996;18.980;2023-07-13T03:23:34;13.10;;;5.28;;
43646;SDS011;56152;49.996;18.980;2023-07-13T03:28:38;10.40;;;5.72;;
43646;SDS011;56152;49.996;18.980;2023-07-13T03:33:57;11.27;;;5.75;;
43646;SDS011;56152;49.996;18.980;2023-07-13T03:39:02;8.27;;;5.53;;
43646;SDS011;56152;49.996;18.980;2023-07-13T03:49:29;9.75;;;6.63;;
43646;SDS011;56152;49.996;18.980;2023-07-13T04:00:01;19.77;;;6.72;;
43646;SDS011;56152;49.996;18.980;2023-07-13T04:05:06;19.95;;;6.88;;
43646;SDS011;56152;49.996;18.980;2023-07-13T04:10:08;15.10;;;7.28;;
43646;SDS011;56152;49.996;18.980;2023-07-13T04:15:17;16.45;;;7.35;;
43646;SDS011;56152;49.996;18.980;2023-07-13T04:20:19;14.32;;;7.05;;
43646;SDS011;56152;49.996;18.980;2023-07-13T04:25:24;18.70;;;6.88;;
43646;SDS011;56152;49.996;18.980;2023-07-13T04:30:37;15.18;;;7.32;;
43646;SDS011;56152;49.996;18.980;2023-07-13T04:35:59;11.68;;;7.65;;
43646;SDS011;56152;49.996;18.980;2023-07-13T04:41:05;13.32;;;6.53;;
43646;SDS011;56152;49.996;18.980;2023-07-13T04:46:23;12.80;;;6.07;;
43646;SDS011;56152;49.996;18.980;2023-07-13T04:51:25;19.23;;;7.57;;
43646;SDS011;56152;49.996;18.980;2023-07-13T04:56:29;12.05;;;6.68;;
43646;SDS011;56152;49.996;18.980;2023-07-13T05:01:35;12.55;;;7.82;;
43646;SDS011;56152;49.996;18.980;2023-07-13T05:06:37;12.85;;;7.35;;
43646;SDS011;56152;49.996;18.980;2023-07-13T05:11:44;11.98;;;6.35;;
43646;SDS011;56152;49.996;18.980;2023-07-13T05:16:47;12.30;;;6.57;;
43646;SDS011;56152;49.996;18.980;2023-07-13T05:21:52;8.25;;;5.35;;
43646;SDS011;56152;49.996;18.980;2023-07-13T05:32:53;11.45;;;5.78;;
43646;SDS011;56152;49.996;18.980;2023-07-13T05:37:55;12.63;;;5.63;;
43646;SDS011;56152;49.996;18.980;2023-07-13T05:42:56;8.57;;;6.18;;
43646;SDS011;56152;49.996;18.980;2023-07-13T05:53:35;6.22;;;5.20;;
43646;SDS011;56152;49.996;18.980;2023-07-13T05:58:37;9.88;;;5.68;;
43646;SDS011;56152;49.996;18.980;2023-07-13T06:08:57;8.63;;;4.65;;
43646;SDS011;56152;49.996;18.980;2023-07-13T06:19:55;8.32;;;5.00;;
43646;SDS011;56152;49.996;18.980;2023-07-13T06:24:57;7.72;;;4.70;;
43646;SDS011;56152;49.996;18.980;2023-07-13T06:29:59;10.45;;;5.10;;
43646;SDS011;56152;49.996;18.980;2023-07-13T06:35:06;9.55;;;5.25;;
43646;SDS011;56152;49.996;18.980;2023-07-13T06:40:08;8.52;;;4.70;;
43646;SDS011;56152;49.996;18.980;2023-07-13T06:45:20;6.63;;;4.93;;
43646;SDS011;56152;49.996;18.980;2023-07-13T06:55:50;10.10;;;5.40;;
43646;SDS011;56152;49.996;18.980;2023-07-13T07:00:53;8.38;;;5.18;;
43646;SDS011;56152;49.996;18.980;2023-07-13T07:06:01;9.05;;;5.20;;
43646;SDS011;56152;49.996;18.980;2023-07-13T07:11:12;9.52;;;5.75;;
43646;SDS011;56152;49.996;18.980;2023-07-13T07:16:27;10.10;;;5.30;;
43646;SDS011;56152;49.996;18.980;2023-07-13T07:22:01;8.32;;;5.28;;
43646;SDS011;56152;49.996;18.980;2023-07-13T07:27:20;7.78;;;5.93;;
43646;SDS011;56152;49.996;18.980;2023-07-13T07:32:22;10.40;;;6.63;;
43646;SDS011;56152;49.996;18.980;2023-07-13T07:37:37;6.45;;;5.40;;
43646;SDS011;56152;49.996;18.980;2023-07-13T07:43:12;10.07;;;5.53;;
43646;SDS011;56152;49.996;18.980;2023-07-13T07:48:14;10.23;;;5.28;;
43646;SDS011;56152;49.996;18.980;2023-07-13T07:59:15;14.38;;;5.50;;
43646;SDS011;56152;49.996;18.980;2023-07-13T08:04:18;13.38;;;6.60;;
43646;SDS011;56152;49.996;18.980;2023-07-13T08:09:20;13.60;;;5.68;;
43646;SDS011;56152;49.996;18.980;2023-07-13T08:14:25;10.30;;;6.03;;
43646;SDS011;56152;49.996;18.980;2023-07-13T08:19:27;10.95;;;6.57;;
43646;SDS011;56152;49.996;18.980;2023-07-13T08:24:34;8.65;;;5.65;;
43646;SDS011;56152;49.996;18.980;2023-07-13T08:29:41;16.00;;;6.88;;
43646;SDS011;56152;49.996;18.980;2023-07-13T08:34:49;14.02;;;7.07;;
43646;SDS011;56152;49.996;18.980;2023-07-13T08:39:53;10.57;;;6.70;;
43646;SDS011;56152;49.996;18.980;2023-07-13T08:45:00;12.77;;;8.10;;
43646;SDS011;56152;49.996;18.980;2023-07-13T08:50:12;17.83;;;8.45;;
43646;SDS011;56152;49.996;18.980;2023-07-13T08:55:21;13.10;;;7.55;;
43646;SDS011;56152;49.996;18.980;2023-07-13T09:00:34;12.70;;;8.63;;
43646;SDS011;56152;49.996;18.980;2023-07-13T09:05:44;17.13;;;9.50;;
43646;SDS011;56152;49.996;18.980;2023-07-13T09:10:59;12.50;;;8.98;;
43646;SDS011;56152;49.996;18.980;2023-07-13T09:16:14;16.85;;;11.55;;
43646;SDS011;56152;49.996;18.980;2023-07-13T09:21:18;20.05;;;10.60;;
43646;SDS011;56152;49.996;18.980;2023-07-13T09:26:25;14.93;;;11.63;;
43646;SDS011;56152;49.996;18.980;2023-07-13T09:31:37;18.42;;;10.07;;
43646;SDS011;56152;49.996;18.980;2023-07-13T09:37:01;14.30;;;10.10;;
43646;SDS011;56152;49.996;18.980;2023-07-13T09:42:07;13.65;;;10.13;;
43646;SDS011;56152;49.996;18.980;2023-07-13T09:47:25;14.82;;;10.18;;
43646;SDS011;56152;49.996;18.980;2023-07-13T09:57:54;17.80;;;9.68;;
43646;SDS011;56152;49.996;18.980;2023-07-13T10:03:01;13.85;;;10.23;;
43646;SDS011;56152;49.996;18.980;2023-07-13T10:08:14;15.80;;;7.28;;
43646;SDS011;56152;49.996;18.980;2023-07-13T10:13:27;11.05;;;5.65;;
43646;SDS011;56152;49.996;18.980;2023-07-13T10:18:42;11.02;;;6.03;;
43646;SDS011;56152;49.996;18.980;2023-07-13T10:23:54;11.00;;;5.70;;
43646;SDS011;56152;49.996;18.980;2023-07-13T10:29:03;11.43;;;4.70;;
43646;SDS011;56152;49.996;18.980;2023-07-13T10:34:16;7.68;;;4.18;;
43646;SDS011;56152;49.996;18.980;2023-07-13T10:39:26;12.27;;;4.47;;
43646;SDS011;56152;49.996;18.980;2023-07-13T10:44:45;9.18;;;5.15;;
43646;SDS011;56152;49.996;18.980;2023-07-13T10:49:52;9.43;;;4.77;;
43646;SDS011;56152;49.996;18.980;2023-07-13T11:00:43;9.02;;;3.60;;
43646;SDS011;56152;49.996;18.980;2023-07-13T11:06:03;8.10;;;4.05;;
43646;SDS011;56152;49.996;18.980;2023-07-13T11:16:51;7.10;;;3.40;;
43646;SDS011;56152;49.996;18.980;2023-07-13T11:27:35;5.75;;;3.55;;
43646;SDS011;56152;49.996;18.980;2023-07-13T11:33:04;3.95;;;3.05;;
43646;SDS011;56152;49.996;18.980;2023-07-13T11:38:18;4.03;;;3.00;;
43646;SDS011;56152;49.996;18.980;2023-07-13T11:43:26;7.05;;;3.72;;
43646;SDS011;56152;49.996;18.980;2023-07-13T11:48:29;6.65;;;3.33;;
43646;SDS011;56152;49.996;18.980;2023-07-13T11:53:36;5.97;;;3.60;;
43646;SDS011;56152;49.996;18.980;2023-07-13T11:58:41;7.70;;;3.88;;
43646;SDS011;56152;49.996;18.980;2023-07-13T12:03:43;17.50;;;3.65;;
43646;SDS011;56152;49.996;18.980;2023-07-13T12:14:25;5.10;;;3.33;;
43646;SDS011;56152;49.996;18.980;2023-07-13T12:19:47;7.50;;;3.80;;
43646;SDS011;56152;49.996;18.980;2023-07-13T12:25:02;7.40;;;4.05;;
43646;SDS011;56152;49.996;18.980;2023-07-13T12:30:23;4.90;;;3.70;;
43646;SDS011;56152;49.996;18.980;2023-07-13T12:35:39;7.45;;;4.05;;
43646;SDS011;56152;49.996;18.980;2023-07-13T12:40:48;11.07;;;3.92;;
43646;SDS011;56152;49.996;18.980;2023-07-13T12:45:55;4.43;;;3.47;;
43646;SDS011;56152;49.996;18.980;2023-07-13T12:51:08;5.20;;;3.00;;
43646;SDS011;56152;49.996;18.980;2023-07-13T12:56:19;6.57;;;4.20;;
43646;SDS011;56152;49.996;18.980;2023-07-13T13:01:26;7.25;;;3.78;;
43646;SDS011;56152;49.996;18.980;2023-07-13T13:12:15;3.53;;;2.90;;
43646;SDS011;56152;49.996;18.980;2023-07-13T13:22:42;5.85;;;4.00;;
43646;SDS011;56152;49.996;18.980;2023-07-13T13:27:52;8.15;;;4.05;;
43646;SDS011;56152;49.996;18.980;2023-07-13T13:39:01;12.23;;;8.00;;
43646;SDS011;56152;49.996;18.980;2023-07-13T13:44:10;9.38;;;6.03;;
43646;SDS011;56152;49.996;18.980;2023-07-13T13:49:13;5.82;;;5.15;;
43646;SDS011;56152;49.996;18.980;2023-07-13T13:59:27;8.88;;;4.93;;
43646;SDS011;56152;49.996;18.980;2023-07-13T14:10:09;8.93;;;4.30;;
43646;SDS011;56152;49.996;18.980;2023-07-13T14:15:20;10.02;;;4.03;;
43646;SDS011;56152;49.996;18.980;2023-07-13T14:20:23;6.37;;;3.93;;
43646;SDS011;56152;49.996;18.980;2023-07-13T14:30:39;4.78;;;3.40;;
43646;SDS011;56152;49.996;18.980;2023-07-13T14:35:42;8.73;;;3.33;;
43646;SDS011;56152;49.996;18.980;2023-07-13T14:40:45;3.60;;;2.58;;
43646;SDS011;56152;49.996;18.980;2023-07-13T14:45:50;3.40;;;2.50;;
43646;SDS011;56152;49.996;18.980;2023-07-13T14:51:02;3.90;;;2.60;;
43646;SDS011;56152;49.996;18.980;2023-07-13T14:56:08;4.07;;;2.78;;
43646;SDS011;56152;49.996;18.980;2023-07-13T15:01:17;5.80;;;2.67;;
43646;SDS011;56152;49.996;18.980;2023-07-13T15:06:27;3.03;;;2.42;;
43646;SDS011;56152;49.996;18.980;2023-07-13T15:11:31;2.95;;;2.53;;
43646;SDS011;56152;49.996;18.980;2023-07-13T15:16:38;3.20;;;2.25;;
43646;SDS011;56152;49.996;18.980;2023-07-13T15:21:40;3.78;;;3.13;;
43646;SDS011;56152;49.996;18.980;2023-07-13T15:32:13;3.55;;;2.33;;
43646;SDS011;56152;49.996;18.980;2023-07-13T15:37:15;6.38;;;3.78;;
43646;SDS011;56152;49.996;18.980;2023-07-13T15:42:18;4.65;;;2.65;;
43646;SDS011;56152;49.996;18.980;2023-07-13T15:47:29;4.78;;;2.42;;
43646;SDS011;56152;49.996;18.980;2023-07-13T15:52:32;6.22;;;3.20;;
43646;SDS011;56152;49.996;18.980;2023-07-13T15:57:44;5.32;;;2.83;;
43646;SDS011;56152;49.996;18.980;2023-07-13T16:02:51;7.90;;;3.88;;
43646;SDS011;56152;49.996;18.980;2023-07-13T16:08:13;5.47;;;3.30;;
43646;SDS011;56152;49.996;18.980;2023-07-13T16:13:22;4.30;;;3.33;;
43646;SDS011;56152;49.996;18.980;2023-07-13T16:18:39;4.28;;;3.25;;
43646;SDS011;56152;49.996;18.980;2023-07-13T16:23:48;4.20;;;3.47;;
43646;SDS011;56152;49.996;18.980;2023-07-13T16:28:50;5.40;;;4.00;;
43646;SDS011;56152;49.996;18.980;2023-07-13T16:34:02;4.90;;;3.53;;
43646;SDS011;56152;49.996;18.980;2023-07-13T16:39:11;5.82;;;4.65;;
43646;SDS011;56152;49.996;18.980;2023-07-13T16:44:15;6.43;;;4.40;;
43646;SDS011;56152;49.996;18.980;2023-07-13T16:49:44;7.63;;;3.90;;
43646;SDS011;56152;49.996;18.980;2023-07-13T16:54:48;4.43;;;4.00;;
43646;SDS011;56152;49.996;18.980;2023-07-13T16:59:53;4.45;;;3.35;;
43646;SDS011;56152;49.996;18.980;2023-07-13T17:05:04;5.20;;;3.95;;
43646;SDS011;56152;49.996;18.980;2023-07-13T17:10:20;5.40;;;4.30;;
43646;SDS011;56152;49.996;18.980;2023-07-13T17:15:33;4.53;;;4.03;;
43646;SDS011;56152;49.996;18.980;2023-07-13T17:20:44;4.63;;;3.67;;
43646;SDS011;56152;49.996;18.980;2023-07-13T17:25:51;7.20;;;5.20;;
43646;SDS011;56152;49.996;18.980;2023-07-13T17:31:03;7.03;;;4.63;;
43646;SDS011;56152;49.996;18.980;2023-07-13T17:36:11;4.85;;;3.67;;
43646;SDS011;56152;49.996;18.980;2023-07-13T17:41:16;6.95;;;4.38;;
43646;SDS011;56152;49.996;18.980;2023-07-13T17:46:20;6.30;;;4.60;;
43646;SDS011;56152;49.996;18.980;2023-07-13T17:51:40;7.53;;;4.25;;
43646;SDS011;56152;49.996;18.980;2023-07-13T17:56:50;6.55;;;4.30;;
43646;SDS011;56152;49.996;18.980;2023-07-13T18:01:53;6.97;;;4.55;;
43646;SDS011;56152;49.996;18.980;2023-07-13T18:07:06;12.75;;;8.65;;
43646;SDS011;56152;49.996;18.980;2023-07-13T18:12:17;43.67;;;23.85;;
43646;SDS011;56152;49.996;18.980;2023-07-13T18:17:21;14.43;;;10.15;;
43646;SDS011;56152;49.996;18.980;2023-07-13T18:27:57;11.20;;;6.57;;
43646;SDS011;56152;49.996;18.980;2023-07-13T18:33:00;11.43;;;6.80;;
43646;SDS011;56152;49.996;18.980;2023-07-13T18:38:14;10.77;;;6.00;;
43646;SDS011;56152;49.996;18.980;2023-07-13T18:48:40;11.15;;;6.32;;
43646;SDS011;56152;49.996;18.980;2023-07-13T18:53:48;12.18;;;7.65;;
43646;SDS011;56152;49.996;18.980;2023-07-13T18:58:53;13.90;;;6.70;;
43646;SDS011;56152;49.996;18.980;2023-07-13T19:03:55;12.32;;;6.18;;
43646;SDS011;56152;49.996;18.980;2023-07-13T19:09:00;10.50;;;5.45;;
43646;SDS011;56152;49.996;18.980;2023-07-13T19:14:08;11.07;;;5.53;;
43646;SDS011;56152;49.996;18.980;2023-07-13T19:19:19;22.55;;;5.38;;
43646;SDS011;56152;49.996;18.980;2023-07-13T19:24:30;11.48;;;5.90;;
43646;SDS011;56152;49.996;18.980;2023-07-13T19:35:06;13.38;;;6.63;;
43646;SDS011;56152;49.996;18.980;2023-07-13T19:45:30;11.27;;;6.20;;
43646;SDS011;56152;49.996;18.980;2023-07-13T19:50:32;13.63;;;5.75;;
43646;SDS011;56152;49.996;18.980;2023-07-13T19:55:38;8.50;;;5.53;;
43646;SDS011;56152;49.996;18.980;2023-07-13T20:00:49;11.50;;;5.13;;
43646;SDS011;56152;49.996;18.980;2023-07-13T20:05:56;8.82;;;6.18;;
43646;SDS011;56152;49.996;18.980;2023-07-13T20:11:03;10.48;;;6.20;;
43646;SDS011;56152;49.996;18.980;2023-07-13T20:16:07;10.35;;;6.95;;
43646;SDS011;56152;49.996;18.980;2023-07-13T20:21:14;12.03;;;6.27;;
43646;SDS011;56152;49.996;18.980;2023-07-13T20:26:23;10.85;;;8.75;;
43646;SDS011;56152;49.996;18.980;2023-07-13T20:31:31;17.15;;;8.45;;
43646;SDS011;56152;49.996;18.980;2023-07-13T20:36:34;12.65;;;6.10;;
43646;SDS011;56152;49.996;18.980;2023-07-13T20:41:38;9.48;;;7.32;;
43646;SDS011;56152;49.996;18.980;2023-07-13T20:47:00;17.90;;;6.82;;
43646;SDS011;56152;49.996;18.980;2023-07-13T20:52:08;22.30;;;7.78;;
43646;SDS011;56152;49.996;18.980;2023-07-13T20:57:14;11.38;;;7.47;;
43646;SDS011;56152;49.996;18.980;2023-07-13T21:02:24;14.18;;;10.25;;
43646;SDS011;56152;49.996;18.980;2023-07-13T21:07:32;13.55;;;8.60;;
43646;SDS011;56152;49.996;18.980;2023-07-13T21:24:07;19.55;;;9.85;;
43646;SDS011;56152;49.996;18.980;2023-07-13T21:29:13;14.90;;;9.10;;
43646;SDS011;56152;49.996;18.980;2023-07-13T21:34:18;20.13;;;9.75;;
43646;SDS011;56152;49.996;18.980;2023-07-13T21:45:19;18.48;;;12.15;;
43646;SDS011;56152;49.996;18.980;2023-07-13T21:50:31;14.68;;;10.10;;
43646;SDS011;56152;49.996;18.980;2023-07-13T21:55:36;21.42;;;10.95;;
43646;SDS011;56152;49.996;18.980;2023-07-13T22:00:41;18.85;;;11.07;;
43646;SDS011;56152;49.996;18.980;2023-07-13T22:05:46;14.93;;;10.25;;
43646;SDS011;56152;49.996;18.980;2023-07-13T22:10:48;12.95;;;9.98;;
43646;SDS011;56152;49.996;18.980;2023-07-13T22:21:31;19.25;;;8.57;;
43646;SDS011;56152;49.996;18.980;2023-07-13T22:26:51;17.98;;;10.70;;
43646;SDS011;56152;49.996;18.980;2023-07-13T22:31:53;11.73;;;7.30;;
43646;SDS011;56152;49.996;18.980;2023-07-13T22:37:09;13.35;;;8.95;;
43646;SDS011;56152;49.996;18.980;2023-07-13T22:42:26;17.20;;;11.27;;
43646;SDS011;56152;49.996;18.980;2023-07-13T22:47:27;22.08;;;12.20;;
43646;SDS011;56152;49.996;18.980;2023-07-13T22:52:31;18.70;;;12.00;;
43646;SDS011;56152;49.996;18.980;2023-07-13T23:03:23;19.40;;;9.40;;
43646;SDS011;56152;49.996;18.980;2023-07-13T23:08:31;14.20;;;9.50;;
43646;SDS011;56152;49.996;18.980;2023-07-13T23:13:45;18.60;;;8.25;;
43646;SDS011;56152;49.996;18.980;2023-07-13T23:18:48;12.27;;;7.60;;
43646;SDS011;56152;49.996;18.980;2023-07-13T23:24:04;17.35;;;9.85;;
43646;SDS011;56152;49.996;18.980;2023-07-13T23:29:12;10.25;;;7.60;;
43646;SDS011;56152;49.996;18.980;2023-07-13T23:34:27;15.63;;;7.00;;
43646;SDS011;56152;49.996;18.980;2023-07-13T23:39:32;9.27;;;5.60;;
43646;SDS011;56152;49.996;18.980;2023-07-13T23:44:35;8.40;;;5.43;;
43646;SDS011;56152;49.996;18.980;2023-07-13T23:49:39;9.70;;;6.55;;
43646;SDS011;56152;49.996;18.980;2023-07-13T23:54:43;9.02;;;7.07;;
43646;SDS011;56152;49.996;18.980;2023-07-13T23:59:45;12.18;;;7.30;;
